sensor_id;sensor_type;location;lat;lon;timestamp;P1;durP1;ratioP1;P2;durP2;ratioP2
17917;SDS011;9084;50.956;3.106;2023-01-30T00:00:59;7.60;;;2.93;;
17917;SDS011;9084;50.956;3.106;2023-01-30T00:03:27;7.60;;;2.77;;
17917;SDS011;9084;50.956;3.106;2023-01-30T00:05:53;5.47;;;2.63;;
17917;SDS011;9084;50.956;3.106;2023-01-30T00:08:19;4.00;;;2.53;;
17917;SDS011;9084;50.956;3.106;2023-01-30T00:10:45;5.63;;;2.93;;
17917;SDS011;9084;50.956;3.106;2023-01-30T00:13:12;8.03;;;3.37;;
17917;SDS011;9084;50.956;3.106;2023-01-30T00:15:39;5.23;;;2.30;;
17917;SDS011;9084;50.956;3.106;2023-01-30T00:18:05;3.53;;;2.20;;
17917;SDS011;9084;50.956;3.106;2023-01-30T00:20:31;5.70;;;2.27;;
17917;SDS011;9084;50.956;3.106;2023-01-30T00:22:57;7.23;;;2.67;;
17917;SDS011;9084;50.956;3.106;2023-01-30T00:25:23;9.20;;;3.77;;
17917;SDS011;9084;50.956;3.106;2023-01-30T00:27:53;5.20;;;2.83;;
17917;SDS011;9084;50.956;3.106;2023-01-30T00:30:20;5.57;;;2.63;;
17917;SDS011;9084;50.956;3.106;2023-01-30T00:32:46;7.03;;;2.77;;
17917;SDS011;9084;50.956;3.106;2023-01-30T00:35:12;6.77;;;2.50;;
17917;SDS011;9084;50.956;3.106;2023-01-30T00:37:38;6.10;;;2.57;;
17917;SDS011;9084;50.956;3.106;2023-01-30T00:40:06;4.13;;;2.37;;
17917;SDS011;9084;50.956;3.106;2023-01-30T00:42:33;4.60;;;2.10;;
17917;SDS011;9084;50.956;3.106;2023-01-30T00:45:17;5.20;;;2.30;;
17917;SDS011;9084;50.956;3.106;2023-01-30T00:48:01;6.27;;;2.17;;
17917;SDS011;9084;50.956;3.106;2023-01-30T00:50:27;5.37;;;2.53;;
17917;SDS011;9084;50.956;3.106;2023-01-30T00:53:06;6.87;;;2.13;;
17917;SDS011;9084;50.956;3.106;2023-01-30T00:55:38;3.73;;;2.00;;
17917;SDS011;9084;50.956;3.106;2023-01-30T00:58:08;4.60;;;1.90;;
17917;SDS011;9084;50.956;3.106;2023-01-30T01:00:36;3.50;;;2.17;;
17917;SDS011;9084;50.956;3.106;2023-01-30T01:03:02;4.93;;;2.17;;
17917;SDS011;9084;50.956;3.106;2023-01-30T01:05:29;5.87;;;2.20;;
17917;SDS011;9084;50.956;3.106;2023-01-30T01:07:57;6.23;;;2.83;;
17917;SDS011;9084;50.956;3.106;2023-01-30T01:10:23;5.47;;;2.00;;
17917;SDS011;9084;50.956;3.106;2023-01-30T01:12:50;4.27;;;1.57;;
17917;SDS011;9084;50.956;3.106;2023-01-30T01:15:19;5.53;;;1.70;;
17917;SDS011;9084;50.956;3.106;2023-01-30T01:17:47;8.85;;;2.40;;
17917;SDS011;9084;50.956;3.106;2023-01-30T01:20:14;3.75;;;1.80;;
17917;SDS011;9084;50.956;3.106;2023-01-30T01:22:41;4.00;;;1.77;;
17917;SDS011;9084;50.956;3.106;2023-01-30T01:25:07;5.30;;;1.73;;
17917;SDS011;9084;50.956;3.106;2023-01-30T01:27:34;5.07;;;1.90;;
17917;SDS011;9084;50.956;3.106;2023-01-30T01:30:00;4.77;;;1.73;;
17917;SDS011;9084;50.956;3.106;2023-01-30T01:32:29;5.23;;;1.97;;
17917;SDS011;9084;50.956;3.106;2023-01-30T01:34:55;3.37;;;1.37;;
17917;SDS011;9084;50.956;3.106;2023-01-30T01:37:21;5.87;;;1.40;;
17917;SDS011;9084;50.956;3.106;2023-01-30T01:39:47;4.40;;;1.83;;
17917;SDS011;9084;50.956;3.106;2023-01-30T01:42:35;5.20;;;2.07;;
17917;SDS011;9084;50.956;3.106;2023-01-30T01:47:56;3.43;;;1.60;;
17917;SDS011;9084;50.956;3.106;2023-01-30T01:50:48;4.17;;;1.50;;
17917;SDS011;9084;50.956;3.106;2023-01-30T01:53:23;4.97;;;1.93;;
17917;SDS011;9084;50.956;3.106;2023-01-30T01:55:54;5.77;;;2.20;;
17917;SDS011;9084;50.956;3.106;2023-01-30T01:58:45;4.07;;;1.80;;
17917;SDS011;9084;50.956;3.106;2023-01-30T02:01:28;2.70;;;1.60;;
17917;SDS011;9084;50.956;3.106;2023-01-30T02:03:55;4.90;;;1.80;;
17917;SDS011;9084;50.956;3.106;2023-01-30T02:06:28;3.17;;;1.57;;
17917;SDS011;9084;50.956;3.106;2023-01-30T02:08:59;6.03;;;2.17;;
17917;SDS011;9084;50.956;3.106;2023-01-30T02:14:15;4.33;;;1.80;;
17917;SDS011;9084;50.956;3.106;2023-01-30T02:16:43;6.07;;;1.80;;
17917;SDS011;9084;50.956;3.106;2023-01-30T02:19:54;5.93;;;1.63;;
17917;SDS011;9084;50.956;3.106;2023-01-30T02:25:22;5.53;;;2.00;;
17917;SDS011;9084;50.956;3.106;2023-01-30T02:30:42;6.03;;;2.30;;
17917;SDS011;9084;50.956;3.106;2023-01-30T02:33:21;4.20;;;1.80;;
17917;SDS011;9084;50.956;3.106;2023-01-30T02:36:18;5.93;;;2.03;;
17917;SDS011;9084;50.956;3.106;2023-01-30T02:39:18;5.43;;;2.17;;
17917;SDS011;9084;50.956;3.106;2023-01-30T02:47:16;3.53;;;1.87;;
17917;SDS011;9084;50.956;3.106;2023-01-30T02:49:57;4.50;;;2.23;;
17917;SDS011;9084;50.956;3.106;2023-01-30T02:52:26;7.47;;;2.83;;
17917;SDS011;9084;50.956;3.106;2023-01-30T02:54:57;3.73;;;1.80;;
17917;SDS011;9084;50.956;3.106;2023-01-30T02:57:24;3.90;;;1.77;;
17917;SDS011;9084;50.956;3.106;2023-01-30T02:59:52;6.43;;;2.30;;
17917;SDS011;9084;50.956;3.106;2023-01-30T03:02:35;4.73;;;1.90;;
17917;SDS011;9084;50.956;3.106;2023-01-30T03:05:47;5.13;;;2.27;;
17917;SDS011;9084;50.956;3.106;2023-01-30T03:11:18;2.20;;;1.60;;
17917;SDS011;9084;50.956;3.106;2023-01-30T03:14:01;5.20;;;1.93;;
17917;SDS011;9084;50.956;3.106;2023-01-30T03:16:36;5.18;;;1.63;;
17917;SDS011;9084;50.956;3.106;2023-01-30T03:19:04;3.90;;;1.73;;
17917;SDS011;9084;50.956;3.106;2023-01-30T03:21:33;3.67;;;2.23;;
17917;SDS011;9084;50.956;3.106;2023-01-30T03:24:08;6.07;;;2.20;;
17917;SDS011;9084;50.956;3.106;2023-01-30T03:26:40;4.80;;;2.15;;
17917;SDS011;9084;50.956;3.106;2023-01-30T03:29:10;7.65;;;2.40;;
17917;SDS011;9084;50.956;3.106;2023-01-30T03:31:36;5.47;;;2.07;;
17917;SDS011;9084;50.956;3.106;2023-01-30T03:34:04;7.15;;;3.00;;
17917;SDS011;9084;50.956;3.106;2023-01-30T03:36:30;7.45;;;1.80;;
17917;SDS011;9084;50.956;3.106;2023-01-30T03:38:56;2.95;;;2.20;;
17917;SDS011;9084;50.956;3.106;2023-01-30T03:41:22;2.83;;;1.50;;
17917;SDS011;9084;50.956;3.106;2023-01-30T03:43:49;6.57;;;2.08;;
17917;SDS011;9084;50.956;3.106;2023-01-30T03:46:15;2.55;;;2.00;;
17917;SDS011;9084;50.956;3.106;2023-01-30T03:48:41;4.60;;;2.00;;
17917;SDS011;9084;50.956;3.106;2023-01-30T03:51:06;4.28;;;1.60;;
17917;SDS011;9084;50.956;3.106;2023-01-30T03:53:32;4.47;;;1.87;;
17917;SDS011;9084;50.956;3.106;2023-01-30T03:56:00;3.28;;;1.70;;
17917;SDS011;9084;50.956;3.106;2023-01-30T03:58:28;6.80;;;2.05;;
17917;SDS011;9084;50.956;3.106;2023-01-30T04:00:54;4.55;;;1.73;;
17917;SDS011;9084;50.956;3.106;2023-01-30T04:03:21;2.70;;;1.75;;
17917;SDS011;9084;50.956;3.106;2023-01-30T04:05:50;5.35;;;1.63;;
17917;SDS011;9084;50.956;3.106;2023-01-30T04:08:15;2.50;;;1.83;;
17917;SDS011;9084;50.956;3.106;2023-01-30T04:10:43;3.83;;;1.70;;
17917;SDS011;9084;50.956;3.106;2023-01-30T04:13:09;6.82;;;1.65;;
17917;SDS011;9084;50.956;3.106;2023-01-30T04:15:34;3.78;;;1.33;;
17917;SDS011;9084;50.956;3.106;2023-01-30T04:18:02;5.50;;;2.10;;
17917;SDS011;9084;50.956;3.106;2023-01-30T04:20:28;2.30;;;1.27;;
17917;SDS011;9084;50.956;3.106;2023-01-30T04:22:56;2.60;;;1.40;;
17917;SDS011;9084;50.956;3.106;2023-01-30T04:25:22;2.47;;;1.25;;
17917;SDS011;9084;50.956;3.106;2023-01-30T04:27:47;5.97;;;2.03;;
17917;SDS011;9084;50.956;3.106;2023-01-30T04:30:13;2.60;;;1.30;;
17917;SDS011;9084;50.956;3.106;2023-01-30T04:32:39;4.57;;;1.63;;
17917;SDS011;9084;50.956;3.106;2023-01-30T04:35:04;3.30;;;2.10;;
17917;SDS011;9084;50.956;3.106;2023-01-30T04:37:30;2.60;;;1.50;;
17917;SDS011;9084;50.956;3.106;2023-01-30T04:39:56;3.20;;;1.50;;
17917;SDS011;9084;50.956;3.106;2023-01-30T04:42:22;3.78;;;1.95;;
17917;SDS011;9084;50.956;3.106;2023-01-30T04:44:48;3.17;;;1.75;;
17917;SDS011;9084;50.956;3.106;2023-01-30T04:47:13;3.55;;;1.80;;
17917;SDS011;9084;50.956;3.106;2023-01-30T04:49:40;5.63;;;2.42;;
17917;SDS011;9084;50.956;3.106;2023-01-30T04:52:06;4.32;;;2.13;;
17917;SDS011;9084;50.956;3.106;2023-01-30T04:54:31;3.67;;;1.65;;
17917;SDS011;9084;50.956;3.106;2023-01-30T04:56:57;2.45;;;1.70;;
17917;SDS011;9084;50.956;3.106;2023-01-30T04:59:24;11.85;;;1.83;;
17917;SDS011;9084;50.956;3.106;2023-01-30T05:01:49;3.60;;;1.80;;
17917;SDS011;9084;50.956;3.106;2023-01-30T05:04:16;3.85;;;1.73;;
17917;SDS011;9084;50.956;3.106;2023-01-30T05:06:42;2.55;;;1.42;;
17917;SDS011;9084;50.956;3.106;2023-01-30T05:09:07;4.93;;;1.63;;
17917;SDS011;9084;50.956;3.106;2023-01-30T05:11:34;3.80;;;1.73;;
17917;SDS011;9084;50.956;3.106;2023-01-30T05:14:00;4.03;;;1.98;;
17917;SDS011;9084;50.956;3.106;2023-01-30T05:16:26;3.78;;;2.30;;
17917;SDS011;9084;50.956;3.106;2023-01-30T05:18:55;4.50;;;2.13;;
17917;SDS011;9084;50.956;3.106;2023-01-30T05:21:24;6.07;;;1.88;;
17917;SDS011;9084;50.956;3.106;2023-01-30T05:23:54;2.97;;;1.65;;
17917;SDS011;9084;50.956;3.106;2023-01-30T05:26:21;5.30;;;1.60;;
17917;SDS011;9084;50.956;3.106;2023-01-30T05:28:52;3.13;;;1.85;;
17917;SDS011;9084;50.956;3.106;2023-01-30T05:31:22;6.18;;;2.15;;
17917;SDS011;9084;50.956;3.106;2023-01-30T05:33:49;2.80;;;1.70;;
17917;SDS011;9084;50.956;3.106;2023-01-30T05:36:16;3.97;;;1.98;;
17917;SDS011;9084;50.956;3.106;2023-01-30T05:38:46;3.55;;;1.55;;
17917;SDS011;9084;50.956;3.106;2023-01-30T05:41:13;5.10;;;2.13;;
17917;SDS011;9084;50.956;3.106;2023-01-30T05:43:41;4.45;;;2.10;;
17917;SDS011;9084;50.956;3.106;2023-01-30T05:46:08;3.42;;;1.70;;
17917;SDS011;9084;50.956;3.106;2023-01-30T05:48:38;4.18;;;1.65;;
17917;SDS011;9084;50.956;3.106;2023-01-30T05:51:03;3.58;;;1.80;;
17917;SDS011;9084;50.956;3.106;2023-01-30T05:53:31;6.35;;;1.67;;
17917;SDS011;9084;50.956;3.106;2023-01-30T05:56:02;7.00;;;2.45;;
17917;SDS011;9084;50.956;3.106;2023-01-30T05:58:31;6.15;;;2.08;;
17917;SDS011;9084;50.956;3.106;2023-01-30T06:01:05;3.30;;;1.80;;
17917;SDS011;9084;50.956;3.106;2023-01-30T06:03:35;5.32;;;2.75;;
17917;SDS011;9084;50.956;3.106;2023-01-30T06:06:04;3.90;;;2.15;;
17917;SDS011;9084;50.956;3.106;2023-01-30T06:08:33;4.72;;;2.05;;
17917;SDS011;9084;50.956;3.106;2023-01-30T06:11:02;4.43;;;2.42;;
17917;SDS011;9084;50.956;3.106;2023-01-30T06:13:32;6.50;;;2.47;;
17917;SDS011;9084;50.956;3.106;2023-01-30T06:16:01;4.70;;;2.45;;
17917;SDS011;9084;50.956;3.106;2023-01-30T06:18:27;5.72;;;2.38;;
17917;SDS011;9084;50.956;3.106;2023-01-30T06:20:53;8.75;;;3.08;;
17917;SDS011;9084;50.956;3.106;2023-01-30T06:23:23;3.42;;;2.20;;
17917;SDS011;9084;50.956;3.106;2023-01-30T06:25:49;5.82;;;2.30;;
17917;SDS011;9084;50.956;3.106;2023-01-30T06:28:16;6.35;;;2.53;;
17917;SDS011;9084;50.956;3.106;2023-01-30T06:30:44;4.43;;;2.55;;
17917;SDS011;9084;50.956;3.106;2023-01-30T06:33:12;6.00;;;2.55;;
17917;SDS011;9084;50.956;3.106;2023-01-30T06:35:38;4.78;;;2.60;;
17917;SDS011;9084;50.956;3.106;2023-01-30T06:38:05;6.97;;;2.15;;
17917;SDS011;9084;50.956;3.106;2023-01-30T06:40:35;7.18;;;2.38;;
17917;SDS011;9084;50.956;3.106;2023-01-30T06:43:07;3.88;;;2.50;;
17917;SDS011;9084;50.956;3.106;2023-01-30T06:45:32;6.35;;;2.47;;
17917;SDS011;9084;50.956;3.106;2023-01-30T06:47:58;3.97;;;2.00;;
17917;SDS011;9084;50.956;3.106;2023-01-30T06:50:25;3.78;;;2.10;;
17917;SDS011;9084;50.956;3.106;2023-01-30T06:52:53;7.43;;;2.30;;
17917;SDS011;9084;50.956;3.106;2023-01-30T06:55:21;7.00;;;2.00;;
17917;SDS011;9084;50.956;3.106;2023-01-30T06:57:59;6.60;;;2.40;;
17917;SDS011;9084;50.956;3.106;2023-01-30T07:00:33;5.90;;;2.65;;
17917;SDS011;9084;50.956;3.106;2023-01-30T07:02:59;4.85;;;2.70;;
17917;SDS011;9084;50.956;3.106;2023-01-30T07:05:27;6.20;;;2.40;;
17917;SDS011;9084;50.956;3.106;2023-01-30T07:07:54;10.02;;;3.25;;
17917;SDS011;9084;50.956;3.106;2023-01-30T07:10:22;6.45;;;2.17;;
17917;SDS011;9084;50.956;3.106;2023-01-30T07:12:50;7.60;;;2.63;;
17917;SDS011;9084;50.956;3.106;2023-01-30T07:15:16;6.32;;;2.50;;
17917;SDS011;9084;50.956;3.106;2023-01-30T07:17:42;8.05;;;3.17;;
17917;SDS011;9084;50.956;3.106;2023-01-30T07:20:08;6.18;;;2.58;;
17917;SDS011;9084;50.956;3.106;2023-01-30T07:22:35;8.15;;;2.72;;
17917;SDS011;9084;50.956;3.106;2023-01-30T07:25:03;8.27;;;2.83;;
17917;SDS011;9084;50.956;3.106;2023-01-30T07:27:30;4.95;;;2.00;;
17917;SDS011;9084;50.956;3.106;2023-01-30T07:29:56;8.20;;;3.17;;
17917;SDS011;9084;50.956;3.106;2023-01-30T07:32:24;4.80;;;2.35;;
17917;SDS011;9084;50.956;3.106;2023-01-30T07:34:50;10.68;;;2.92;;
17917;SDS011;9084;50.956;3.106;2023-01-30T07:37:16;6.35;;;2.67;;
17917;SDS011;9084;50.956;3.106;2023-01-30T07:39:45;7.60;;;2.10;;
17917;SDS011;9084;50.956;3.106;2023-01-30T07:42:11;7.90;;;2.35;;
17917;SDS011;9084;50.956;3.106;2023-01-30T07:44:39;8.27;;;2.60;;
17917;SDS011;9084;50.956;3.106;2023-01-30T07:47:05;10.98;;;2.33;;
17917;SDS011;9084;50.956;3.106;2023-01-30T07:49:31;4.90;;;2.28;;
17917;SDS011;9084;50.956;3.106;2023-01-30T07:51:57;5.68;;;2.63;;
17917;SDS011;9084;50.956;3.106;2023-01-30T07:54:23;7.13;;;2.63;;
17917;SDS011;9084;50.956;3.106;2023-01-30T07:56:52;9.80;;;3.13;;
17917;SDS011;9084;50.956;3.106;2023-01-30T07:59:18;9.57;;;2.53;;
17917;SDS011;9084;50.956;3.106;2023-01-30T08:01:44;36.80;;;6.72;;
17917;SDS011;9084;50.956;3.106;2023-01-30T08:04:10;8.70;;;2.80;;
17917;SDS011;9084;50.956;3.106;2023-01-30T08:06:40;5.77;;;1.93;;
17917;SDS011;9084;50.956;3.106;2023-01-30T08:09:06;8.67;;;2.57;;
17917;SDS011;9084;50.956;3.106;2023-01-30T08:11:33;7.37;;;2.13;;
17917;SDS011;9084;50.956;3.106;2023-01-30T08:13:58;17.83;;;3.90;;
17917;SDS011;9084;50.956;3.106;2023-01-30T08:16:24;11.23;;;3.00;;
17917;SDS011;9084;50.956;3.106;2023-01-30T08:18:50;10.13;;;2.47;;
17917;SDS011;9084;50.956;3.106;2023-01-30T08:21:16;10.73;;;3.23;;
17917;SDS011;9084;50.956;3.106;2023-01-30T08:23:41;8.83;;;2.50;;
17917;SDS011;9084;50.956;3.106;2023-01-30T08:26:07;7.97;;;2.10;;
17917;SDS011;9084;50.956;3.106;2023-01-30T08:28:33;7.37;;;2.03;;
17917;SDS011;9084;50.956;3.106;2023-01-30T08:30:59;4.93;;;1.97;;
17917;SDS011;9084;50.956;3.106;2023-01-30T08:33:24;6.63;;;2.20;;
17917;SDS011;9084;50.956;3.106;2023-01-30T08:35:52;7.63;;;2.00;;
17917;SDS011;9084;50.956;3.106;2023-01-30T08:38:20;5.70;;;1.48;;
17917;SDS011;9084;50.956;3.106;2023-01-30T08:40:47;12.75;;;2.40;;
17917;SDS011;9084;50.956;3.106;2023-01-30T08:43:13;10.80;;;2.37;;
17917;SDS011;9084;50.956;3.106;2023-01-30T08:45:39;7.67;;;1.97;;
17917;SDS011;9084;50.956;3.106;2023-01-30T08:48:05;8.57;;;1.90;;
17917;SDS011;9084;50.956;3.106;2023-01-30T08:50:32;9.07;;;2.90;;
17917;SDS011;9084;50.956;3.106;2023-01-30T08:53:04;6.60;;;1.77;;
17917;SDS011;9084;50.956;3.106;2023-01-30T08:55:33;8.47;;;2.20;;
17917;SDS011;9084;50.956;3.106;2023-01-30T08:58:01;8.17;;;1.83;;
17917;SDS011;9084;50.956;3.106;2023-01-30T09:00:28;7.10;;;1.80;;
17917;SDS011;9084;50.956;3.106;2023-01-30T09:02:54;9.50;;;2.20;;
17917;SDS011;9084;50.956;3.106;2023-01-30T09:05:21;8.45;;;2.10;;
17917;SDS011;9084;50.956;3.106;2023-01-30T09:07:48;8.40;;;2.23;;
17917;SDS011;9084;50.956;3.106;2023-01-30T09:10:15;8.53;;;1.80;;
17917;SDS011;9084;50.956;3.106;2023-01-30T09:12:43;6.03;;;1.83;;
17917;SDS011;9084;50.956;3.106;2023-01-30T09:15:10;9.77;;;2.63;;
17917;SDS011;9084;50.956;3.106;2023-01-30T09:17:36;6.90;;;1.73;;
17917;SDS011;9084;50.956;3.106;2023-01-30T09:20:05;8.07;;;1.77;;
17917;SDS011;9084;50.956;3.106;2023-01-30T09:22:32;5.53;;;1.73;;
17917;SDS011;9084;50.956;3.106;2023-01-30T09:24:58;8.63;;;1.80;;
17917;SDS011;9084;50.956;3.106;2023-01-30T09:27:24;7.30;;;2.80;;
17917;SDS011;9084;50.956;3.106;2023-01-30T09:29:53;6.05;;;2.00;;
17917;SDS011;9084;50.956;3.106;2023-01-30T09:32:21;6.72;;;2.15;;
17917;SDS011;9084;50.956;3.106;2023-01-30T09:34:50;3.93;;;1.77;;
17917;SDS011;9084;50.956;3.106;2023-01-30T09:37:16;7.57;;;1.98;;
17917;SDS011;9084;50.956;3.106;2023-01-30T09:39:42;9.07;;;2.10;;
17917;SDS011;9084;50.956;3.106;2023-01-30T09:55:29;6.30;;;2.10;;
17917;SDS011;9084;50.956;3.106;2023-01-30T09:57:58;8.25;;;1.92;;
17917;SDS011;9084;50.956;3.106;2023-01-30T10:00:30;5.77;;;2.10;;
17917;SDS011;9084;50.956;3.106;2023-01-30T10:14:05;7.07;;;2.13;;
17917;SDS011;9084;50.956;3.106;2023-01-30T10:16:45;9.47;;;2.60;;
17917;SDS011;9084;50.956;3.106;2023-01-30T10:27:48;7.63;;;2.10;;
17917;SDS011;9084;50.956;3.106;2023-01-30T10:30:18;13.23;;;3.00;;
17917;SDS011;9084;50.956;3.106;2023-01-30T10:33:06;5.63;;;1.73;;
17917;SDS011;9084;50.956;3.106;2023-01-30T10:35:39;7.00;;;2.43;;
17917;SDS011;9084;50.956;3.106;2023-01-30T10:38:18;6.88;;;2.08;;
17917;SDS011;9084;50.956;3.106;2023-01-30T10:40:51;10.38;;;2.00;;
17917;SDS011;9084;50.956;3.106;2023-01-30T10:43:30;9.40;;;2.30;;
17917;SDS011;9084;50.956;3.106;2023-01-30T10:46:03;6.85;;;2.72;;
17917;SDS011;9084;50.956;3.106;2023-01-30T10:51:27;9.90;;;1.95;;
17917;SDS011;9084;50.956;3.106;2023-01-30T10:54:06;7.63;;;2.05;;
17917;SDS011;9084;50.956;3.106;2023-01-30T11:04:49;5.80;;;2.00;;
17917;SDS011;9084;50.956;3.106;2023-01-30T11:07:22;12.90;;;2.92;;
17917;SDS011;9084;50.956;3.106;2023-01-30T11:09:48;9.02;;;2.05;;
17917;SDS011;9084;50.956;3.106;2023-01-30T11:12:14;6.07;;;1.92;;
17917;SDS011;9084;50.956;3.106;2023-01-30T11:15:00;12.30;;;2.60;;
17917;SDS011;9084;50.956;3.106;2023-01-30T11:17:32;9.45;;;2.30;;
17917;SDS011;9084;50.956;3.106;2023-01-30T11:25:58;9.40;;;1.92;;
17917;SDS011;9084;50.956;3.106;2023-01-30T11:28:25;5.97;;;1.80;;
17917;SDS011;9084;50.956;3.106;2023-01-30T11:30:56;11.32;;;2.42;;
17917;SDS011;9084;50.956;3.106;2023-01-30T11:33:23;9.57;;;2.22;;
17917;SDS011;9084;50.956;3.106;2023-01-30T11:36:00;6.40;;;1.98;;
17917;SDS011;9084;50.956;3.106;2023-01-30T11:38:34;12.40;;;2.22;;
17917;SDS011;9084;50.956;3.106;2023-01-30T11:43:32;9.60;;;2.70;;
17917;SDS011;9084;50.956;3.106;2023-01-30T11:45:59;11.70;;;3.72;;
17917;SDS011;9084;50.956;3.106;2023-01-30T11:48:26;9.70;;;2.47;;
17917;SDS011;9084;50.956;3.106;2023-01-30T11:50:57;12.63;;;2.40;;
17917;SDS011;9084;50.956;3.106;2023-01-30T11:56:37;8.65;;;2.42;;
17917;SDS011;9084;50.956;3.106;2023-01-30T11:59:33;7.55;;;2.42;;
17917;SDS011;9084;50.956;3.106;2023-01-30T12:05:00;5.93;;;2.17;;
17917;SDS011;9084;50.956;3.106;2023-01-30T12:07:35;9.90;;;2.00;;
17917;SDS011;9084;50.956;3.106;2023-01-30T12:10:16;11.65;;;2.80;;
17917;SDS011;9084;50.956;3.106;2023-01-30T12:12:53;8.70;;;2.10;;
17917;SDS011;9084;50.956;3.106;2023-01-30T12:15:28;6.85;;;2.00;;
17917;SDS011;9084;50.956;3.106;2023-01-30T12:26:54;7.10;;;2.10;;
17917;SDS011;9084;50.956;3.106;2023-01-30T12:32:32;9.65;;;2.17;;
17917;SDS011;9084;50.956;3.106;2023-01-30T12:35:01;4.78;;;2.35;;
17917;SDS011;9084;50.956;3.106;2023-01-30T12:37:45;9.43;;;2.50;;
17917;SDS011;9084;50.956;3.106;2023-01-30T12:57:41;12.07;;;2.70;;
17917;SDS011;9084;50.956;3.106;2023-01-30T13:00:35;12.27;;;2.70;;
17917;SDS011;9084;50.956;3.106;2023-01-30T13:03:39;13.05;;;2.83;;
17917;SDS011;9084;50.956;3.106;2023-01-30T13:12:11;13.85;;;3.33;;
17917;SDS011;9084;50.956;3.106;2023-01-30T13:17:41;10.05;;;2.72;;
17917;SDS011;9084;50.956;3.106;2023-01-30T13:23:59;8.30;;;2.27;;
17917;SDS011;9084;50.956;3.106;2023-01-30T13:28:34;9.83;;;2.43;;
17917;SDS011;9084;50.956;3.106;2023-01-30T13:31:05;9.05;;;2.40;;
17917;SDS011;9084;50.956;3.106;2023-01-30T13:33:36;11.07;;;2.72;;
17917;SDS011;9084;50.956;3.106;2023-01-30T13:38:47;11.27;;;3.10;;
17917;SDS011;9084;50.956;3.106;2023-01-30T13:41:20;8.52;;;2.78;;
17917;SDS011;9084;50.956;3.106;2023-01-30T13:43:54;7.65;;;2.03;;
17917;SDS011;9084;50.956;3.106;2023-01-30T13:46:25;9.00;;;2.45;;
17917;SDS011;9084;50.956;3.106;2023-01-30T13:51:41;9.15;;;2.15;;
17917;SDS011;9084;50.956;3.106;2023-01-30T13:59:45;7.32;;;2.40;;
17917;SDS011;9084;50.956;3.106;2023-01-30T14:02:31;12.73;;;2.38;;
17917;SDS011;9084;50.956;3.106;2023-01-30T14:04:57;11.15;;;3.20;;
17917;SDS011;9084;50.956;3.106;2023-01-30T14:20:31;10.25;;;2.60;;
17917;SDS011;9084;50.956;3.106;2023-01-30T14:25:48;7.60;;;2.35;;
17917;SDS011;9084;50.956;3.106;2023-01-30T14:35:47;14.32;;;2.80;;
17917;SDS011;9084;50.956;3.106;2023-01-30T14:38:33;10.18;;;2.50;;
17917;SDS011;9084;50.956;3.106;2023-01-30T14:46:36;10.15;;;3.00;;
17917;SDS011;9084;50.956;3.106;2023-01-30T14:49:01;11.70;;;3.35;;
17917;SDS011;9084;50.956;3.106;2023-01-30T15:02:22;10.73;;;2.30;;
17917;SDS011;9084;50.956;3.106;2023-01-30T15:04:56;13.38;;;3.35;;
17917;SDS011;9084;50.956;3.106;2023-01-30T15:13:04;14.32;;;3.08;;
17917;SDS011;9084;50.956;3.106;2023-01-30T15:15:34;12.30;;;3.58;;
17917;SDS011;9084;50.956;3.106;2023-01-30T15:29:05;9.55;;;2.70;;
17917;SDS011;9084;50.956;3.106;2023-01-30T15:31:51;11.45;;;3.05;;
17917;SDS011;9084;50.956;3.106;2023-01-30T15:34:21;15.00;;;3.65;;
17917;SDS011;9084;50.956;3.106;2023-01-30T15:36:51;8.98;;;2.92;;
17917;SDS011;9084;50.956;3.106;2023-01-30T15:39:21;12.07;;;2.60;;
17917;SDS011;9084;50.956;3.106;2023-01-30T15:41:51;10.00;;;2.60;;
17917;SDS011;9084;50.956;3.106;2023-01-30T15:52:35;10.90;;;3.20;;
17917;SDS011;9084;50.956;3.106;2023-01-30T15:55:30;9.77;;;3.43;;
17917;SDS011;9084;50.956;3.106;2023-01-30T15:58:08;14.43;;;3.70;;
17917;SDS011;9084;50.956;3.106;2023-01-30T16:00:43;10.03;;;2.80;;
17917;SDS011;9084;50.956;3.106;2023-01-30T16:03:13;12.57;;;4.30;;
17917;SDS011;9084;50.956;3.106;2023-01-30T16:05:50;10.93;;;4.97;;
17917;SDS011;9084;50.956;3.106;2023-01-30T16:08:23;14.87;;;4.17;;
17917;SDS011;9084;50.956;3.106;2023-01-30T16:10:51;14.53;;;4.57;;
17917;SDS011;9084;50.956;3.106;2023-01-30T16:13:22;18.88;;;10.75;;
17917;SDS011;9084;50.956;3.106;2023-01-30T16:18:44;20.03;;;11.57;;
17917;SDS011;9084;50.956;3.106;2023-01-30T16:21:15;13.27;;;7.67;;
17917;SDS011;9084;50.956;3.106;2023-01-30T16:23:56;12.90;;;5.10;;
17917;SDS011;9084;50.956;3.106;2023-01-30T16:26:27;13.07;;;3.60;;
17917;SDS011;9084;50.956;3.106;2023-01-30T16:29:00;12.53;;;4.00;;
17917;SDS011;9084;50.956;3.106;2023-01-30T16:31:32;17.40;;;8.93;;
17917;SDS011;9084;50.956;3.106;2023-01-30T16:34:04;18.90;;;8.73;;
17917;SDS011;9084;50.956;3.106;2023-01-30T16:36:38;15.47;;;7.07;;
17917;SDS011;9084;50.956;3.106;2023-01-30T16:39:21;16.63;;;7.30;;
17917;SDS011;9084;50.956;3.106;2023-01-30T16:41:53;12.43;;;4.33;;
17917;SDS011;9084;50.956;3.106;2023-01-30T16:44:24;9.67;;;3.53;;
17917;SDS011;9084;50.956;3.106;2023-01-30T16:52:23;13.80;;;3.93;;
17917;SDS011;9084;50.956;3.106;2023-01-30T16:54:54;9.97;;;4.30;;
17917;SDS011;9084;50.956;3.106;2023-01-30T16:57:29;10.70;;;4.93;;
17917;SDS011;9084;50.956;3.106;2023-01-30T17:00:02;12.90;;;4.77;;
17917;SDS011;9084;50.956;3.106;2023-01-30T17:02:46;14.20;;;4.83;;
17917;SDS011;9084;50.956;3.106;2023-01-30T17:05:22;12.07;;;3.30;;
17917;SDS011;9084;50.956;3.106;2023-01-30T17:07:49;10.17;;;4.30;;
17917;SDS011;9084;50.956;3.106;2023-01-30T17:13:03;15.70;;;4.97;;
17917;SDS011;9084;50.956;3.106;2023-01-30T17:15:48;11.93;;;3.73;;
17917;SDS011;9084;50.956;3.106;2023-01-30T17:18:16;15.17;;;3.87;;
17917;SDS011;9084;50.956;3.106;2023-01-30T17:20:42;11.63;;;3.03;;
17917;SDS011;9084;50.956;3.106;2023-01-30T17:23:16;9.03;;;3.30;;
17917;SDS011;9084;50.956;3.106;2023-01-30T17:25:44;14.37;;;3.77;;
17917;SDS011;9084;50.956;3.106;2023-01-30T17:28:18;8.47;;;3.03;;
17917;SDS011;9084;50.956;3.106;2023-01-30T17:30:46;11.07;;;3.20;;
17917;SDS011;9084;50.956;3.106;2023-01-30T17:33:13;16.50;;;4.10;;
17917;SDS011;9084;50.956;3.106;2023-01-30T17:35:39;11.67;;;3.97;;
17917;SDS011;9084;50.956;3.106;2023-01-30T17:38:05;9.67;;;2.70;;
17917;SDS011;9084;50.956;3.106;2023-01-30T17:40:36;17.27;;;4.53;;
17917;SDS011;9084;50.956;3.106;2023-01-30T17:43:02;13.20;;;3.63;;
17917;SDS011;9084;50.956;3.106;2023-01-30T17:45:29;10.47;;;3.40;;
17917;SDS011;9084;50.956;3.106;2023-01-30T17:47:55;12.37;;;4.03;;
17917;SDS011;9084;50.956;3.106;2023-01-30T17:50:21;11.10;;;4.17;;
17917;SDS011;9084;50.956;3.106;2023-01-30T17:52:49;11.17;;;4.10;;
17917;SDS011;9084;50.956;3.106;2023-01-30T17:55:17;9.23;;;3.53;;
17917;SDS011;9084;50.956;3.106;2023-01-30T17:57:44;10.80;;;3.63;;
17917;SDS011;9084;50.956;3.106;2023-01-30T18:00:17;9.53;;;4.10;;
17917;SDS011;9084;50.956;3.106;2023-01-30T18:02:46;14.53;;;3.77;;
17917;SDS011;9084;50.956;3.106;2023-01-30T18:05:15;11.50;;;3.53;;
17917;SDS011;9084;50.956;3.106;2023-01-30T18:07:41;11.53;;;4.30;;
17917;SDS011;9084;50.956;3.106;2023-01-30T18:10:15;7.43;;;3.73;;
17917;SDS011;9084;50.956;3.106;2023-01-30T18:12:43;10.53;;;4.10;;
17917;SDS011;9084;50.956;3.106;2023-01-30T18:15:13;12.03;;;3.93;;
17917;SDS011;9084;50.956;3.106;2023-01-30T18:17:44;11.00;;;3.87;;
17917;SDS011;9084;50.956;3.106;2023-01-30T18:20:12;9.50;;;4.13;;
17917;SDS011;9084;50.956;3.106;2023-01-30T18:22:40;13.43;;;4.67;;
17917;SDS011;9084;50.956;3.106;2023-01-30T18:25:06;12.03;;;4.10;;
17917;SDS011;9084;50.956;3.106;2023-01-30T18:27:32;9.90;;;5.13;;
17917;SDS011;9084;50.956;3.106;2023-01-30T18:29:58;13.93;;;4.90;;
17917;SDS011;9084;50.956;3.106;2023-01-30T18:32:25;13.73;;;5.53;;
17917;SDS011;9084;50.956;3.106;2023-01-30T18:34:53;9.77;;;4.70;;
17917;SDS011;9084;50.956;3.106;2023-01-30T18:37:19;11.43;;;4.40;;
17917;SDS011;9084;50.956;3.106;2023-01-30T18:39:47;8.23;;;4.07;;
17917;SDS011;9084;50.956;3.106;2023-01-30T18:42:13;11.40;;;5.00;;
17917;SDS011;9084;50.956;3.106;2023-01-30T18:44:39;15.90;;;5.13;;